VECC/CCU METAR and TAF weather

Enter ICAO airport designator
Station Type Date Time Source
VECC METAR 2019/12/13 17:00 UTC NOAA

VECC 131700Z 05003KT 2000 BR FEW020 SCT100 20/19 Q1017 NOSIG


Station Type Date Time Source
VECC Decoded METAR 2019/12/13 17:00 UTC NOAA

Calcutta / Dum Dum, India (VECC) 22-39N 088-27E 6M
Dec 13, 2019 - 12:00 PM EST / 2019.12.13 1700 UTC
Wind: from the NE (050 degrees) at 3 MPH (3 KT):0
Visibility: 1 mile(s):0
Sky conditions: partly cloudy
Weather: mist
Temperature: 68 F (20 C)
Dew Point: 66 F (19 C)
Relative Humidity: 93%
Pressure (altimeter): 30.03 in. Hg (1017 hPa)
ob: VECC 131700Z 05003KT 2000 BR FEW020 SCT100 20/19 Q1017 NOSIG
cycle: 17

Station Type Date Time Source
VECC TAF 2019/12/13 12:39 UTC NOAA

TAF VECC 131100Z 1312/1418 13005KT 2800 HZ FEW020
BECMG 1318/1320 00000KT 1400 BR NSC
BECMG 1400/1402 0600 FG
BECMG 1403/1405 02005KT 1400 BR FEW020
BECMG 1406/1408 2400 HZ
BECMG 1410/1412 3200 HZ

Example: see airport list